Terminal Aerodrome Forecast
Issued by NWS Norman, OK

Home | Current Version | Previous Version | Text Only | Print | Product List | Glossary On
Versions: 1 2 3 4 5 6 7 8 9 10 11 12 13 14
000
FTUS44 KOUN 031153
TAFOKC
TAF
KOKC 031153Z 0312/0412 07005KT P6SM -RA OVC040
     FM031400 08007KT 5SM -RA FEW015 OVC035
     FM031600 08008KT 4SM -RA SCT015 OVC030
     FM032200 08009KT P6SM SCT007 OVC012 PROB30 0322/0401 -RA
     FM040100 01004KT 4SM -DZ BR OVC007=

USA.gov is the U.S. government's official web portal to all federal, state and local government web resources and services.